createdAt,value
2023-02-18T00:00:32.974Z,68.61
2023-02-18T00:03:23.621Z,68.79
2023-02-18T00:05:56.085Z,68.45
2023-02-18T00:08:28.264Z,68.29
2023-02-18T00:11:00.439Z,68.47
2023-02-18T00:13:32.980Z,68.39
2023-02-18T00:16:07.482Z,68.67
2023-02-18T00:18:41.034Z,68.43
2023-02-18T00:21:13.372Z,68.50
2023-02-18T00:23:45.834Z,68.38
2023-02-18T00:26:19.871Z,68.41
2023-02-18T00:28:53.201Z,68.64
2023-02-18T00:31:28.187Z,68.85
2023-02-18T00:34:01.686Z,69.16
2023-02-18T00:36:34.626Z,69.75
2023-02-18T00:39:08.540Z,70.12
2023-02-18T00:41:41.469Z,70.46
2023-02-18T00:44:15.569Z,70.96
2023-02-18T00:46:50.034Z,71.43
2023-02-18T00:49:22.307Z,71.29
2023-02-18T00:51:54.545Z,71.32
2023-02-18T00:54:26.662Z,71.49
2023-02-18T00:56:58.885Z,71.37
2023-02-18T00:59:31.595Z,71.35
2023-02-18T01:02:07.732Z,71.62
2023-02-18T01:04:40.253Z,71.85
2023-02-18T01:07:12.749Z,71.90
2023-02-18T01:09:46.175Z,71.92
2023-02-18T01:12:19.571Z,71.88
2023-02-18T01:14:51.642Z,71.56
2023-02-18T01:17:24.336Z,71.39
2023-02-18T01:19:56.996Z,71.28
2023-02-18T01:22:29.368Z,71.10
2023-02-18T01:25:01.644Z,71.01
2023-02-18T01:27:34.048Z,71.25
2023-02-18T01:30:10.120Z,71.64
2023-02-18T01:32:42.385Z,72.00
2023-02-18T01:35:17.458Z,71.97
2023-02-18T01:37:51.676Z,72.32
2023-02-18T01:40:27.267Z,72.58
2023-02-18T01:42:59.518Z,73.31
2023-02-18T01:46:04.097Z,73.80
2023-02-18T01:48:40.792Z,73.92
2023-02-18T01:51:17.999Z,73.93
2023-02-18T01:53:55.875Z,74.03
2023-02-18T01:56:32.499Z,74.77
2023-02-18T01:59:11.592Z,75.32
2023-02-18T02:01:46.359Z,75.66
2023-02-18T02:04:19.185Z,75.94
2023-02-18T02:06:51.776Z,76.05
2023-02-18T02:09:28.241Z,75.82
2023-02-18T02:12:24.722Z,76.15
2023-02-18T02:15:15.850Z,76.63
2023-02-18T02:18:01.917Z,76.94
2023-02-18T02:21:13.061Z,77.01
2023-02-18T02:24:30.836Z,77.42
2023-02-18T02:27:17.118Z,77.54
2023-02-18T02:30:25.871Z,77.34
2023-02-18T02:33:23.449Z,77.62
2023-02-18T02:36:03.584Z,77.18
2023-02-18T02:38:42.496Z,77.36
2023-02-18T02:41:24.383Z,77.75
2023-02-18T02:44:11.335Z,77.63
2023-02-18T02:46:47.806Z,77.64
2023-02-18T02:49:26.412Z,77.39
2023-02-18T02:52:04.743Z,77.17
2023-02-18T02:54:37.068Z,77.24
2023-02-18T02:57:25.422Z,76.98
2023-02-18T03:00:11.572Z,77.11
2023-02-18T03:02:59.249Z,77.13
2023-02-18T03:05:44.018Z,77.04
2023-02-18T03:08:31.611Z,76.70
2023-02-18T03:11:08.758Z,75.86
2023-02-18T03:13:57.828Z,75.17
2023-02-18T03:16:44.036Z,74.23
2023-02-18T03:19:24.190Z,73.52
2023-02-18T03:22:03.890Z,72.48
2023-02-18T03:24:40.019Z,72.12
2023-02-18T03:27:13.192Z,71.57
2023-02-18T03:29:52.632Z,71.71
2023-02-18T03:32:28.674Z,70.74
2023-02-18T03:35:10.181Z,69.32
2023-02-18T03:37:47.110Z,68.97
2023-02-18T03:40:20.672Z,68.89
2023-02-18T03:42:53.454Z,67.75
2023-02-18T03:45:25.913Z,68.56
2023-02-18T03:47:58.144Z,68.16
2023-02-18T03:50:30.413Z,68.59
2023-02-18T03:53:02.593Z,68.99
2023-02-18T03:55:34.798Z,68.69
2023-02-18T03:58:06.914Z,67.96
2023-02-18T04:00:39.436Z,68.01
2023-02-18T04:03:11.489Z,67.29
2023-02-18T04:05:43.677Z,66.39
2023-02-18T04:08:15.730Z,65.42
2023-02-18T04:10:47.905Z,65.20
2023-02-18T04:13:20.514Z,65.51
2023-02-18T04:15:53.739Z,65.06
2023-02-18T04:18:26.177Z,64.28
2023-02-18T04:20:58.385Z,63.96
2023-02-18T04:23:30.492Z,64.46
2023-02-18T04:26:02.749Z,65.03
2023-02-18T04:28:34.824Z,64.86
2023-02-18T04:31:07.445Z,64.37
2023-02-18T04:33:39.632Z,65.18
2023-02-18T04:36:12.662Z,65.08
2023-02-18T04:38:44.719Z,65.19
2023-02-18T04:41:16.890Z,66.16
2023-02-18T04:43:48.967Z,66.27
2023-02-18T04:46:21.721Z,66.37
2023-02-18T04:48:53.903Z,66.89
2023-02-18T04:51:26.312Z,67.19
2023-02-18T04:53:58.509Z,67.65
2023-02-18T04:56:32.120Z,68.08
2023-02-18T04:59:04.616Z,68.17
2023-02-18T05:01:37.137Z,67.77
2023-02-18T05:04:09.821Z,68.48
2023-02-18T05:06:43.192Z,68.56
2023-02-18T05:09:15.884Z,69.26
2023-02-18T05:11:49.546Z,69.07
2023-02-18T05:14:21.747Z,69.45
2023-02-18T05:16:55.349Z,69.18
2023-02-18T05:19:27.784Z,69.75
2023-02-18T05:22:00.422Z,70.59
2023-02-18T05:24:32.835Z,70.03
2023-02-18T05:27:05.132Z,70.57
2023-02-18T05:29:37.251Z,71.06
2023-02-18T05:32:09.786Z,70.98
2023-02-18T05:34:42.057Z,70.77
2023-02-18T05:37:14.552Z,70.73
2023-02-18T05:39:47.402Z,70.82
2023-02-18T05:42:20.861Z,70.74
2023-02-18T05:44:53.187Z,70.68
2023-02-18T05:47:25.590Z,70.71
2023-02-18T05:49:57.708Z,70.49
2023-02-18T05:52:30.132Z,70.98
2023-02-18T05:55:02.446Z,70.83
2023-02-18T05:57:34.768Z,70.44
2023-02-18T06:00:10.638Z,70.02
2023-02-18T06:02:42.766Z,69.07
2023-02-18T06:05:15.466Z,68.03
2023-02-18T06:07:47.746Z,67.45
2023-02-18T06:10:20.024Z,67.27
2023-02-18T06:12:52.159Z,67.09
2023-02-18T06:15:24.328Z,65.64
2023-02-18T06:17:56.731Z,65.71
2023-02-18T06:20:29.005Z,65.78
2023-02-18T06:23:01.527Z,64.67
2023-02-18T06:25:34.118Z,64.43
2023-02-18T06:28:06.500Z,64.94
2023-02-18T06:30:38.893Z,64.89
2023-02-18T06:33:11.114Z,65.00
2023-02-18T06:35:43.158Z,65.44
2023-02-18T06:38:15.179Z,65.85
2023-02-18T06:40:49.167Z,65.99
2023-02-18T06:43:22.439Z,65.33
2023-02-18T06:45:54.814Z,64.96
2023-02-18T06:48:26.922Z,63.67
2023-02-18T06:50:59.916Z,63.62
2023-02-18T06:53:32.145Z,63.74
2023-02-18T06:56:04.556Z,63.46
2023-02-18T06:58:36.815Z,63.20
2023-02-18T07:01:09.429Z,63.11
2023-02-18T07:03:41.894Z,63.15
2023-02-18T07:06:13.992Z,62.83
2023-02-18T07:08:46.086Z,63.54
2023-02-18T07:11:18.452Z,64.07
2023-02-18T07:13:50.753Z,64.60
2023-02-18T07:16:22.978Z,64.83
2023-02-18T07:18:55.006Z,64.32
2023-02-18T07:21:27.534Z,63.64
2023-02-18T07:23:59.718Z,63.49
2023-02-18T07:26:31.926Z,62.18
2023-02-18T07:29:04.426Z,61.81
2023-02-18T07:31:38.612Z,61.49
2023-02-18T07:34:10.791Z,61.75
2023-02-18T07:36:43.000Z,62.09
2023-02-18T07:39:15.398Z,62.21
2023-02-18T07:41:48.380Z,61.56
2023-02-18T07:44:21.478Z,61.92
2023-02-18T07:46:53.785Z,61.87
2023-02-18T07:49:26.218Z,62.41
2023-02-18T07:51:58.800Z,62.22
2023-02-18T07:54:31.274Z,64.05
2023-02-18T07:57:03.747Z,64.35
2023-02-18T07:59:35.942Z,64.94
2023-02-18T08:02:08.166Z,65.49
2023-02-18T08:04:40.282Z,65.91
2023-02-18T08:07:16.005Z,66.13
2023-02-18T08:09:49.233Z,66.06
2023-02-18T08:12:21.625Z,65.99
2023-02-18T08:14:53.662Z,66.00
2023-02-18T08:17:25.915Z,65.95
2023-02-18T08:19:58.268Z,65.92
2023-02-18T08:22:30.820Z,66.05
2023-02-18T08:25:03.158Z,65.88
2023-02-18T08:27:35.338Z,65.95
2023-02-18T08:30:09.393Z,65.58
2023-02-18T08:32:41.683Z,66.07
2023-02-18T08:35:15.610Z,65.68
2023-02-18T08:37:53.196Z,65.77
2023-02-18T08:40:26.811Z,65.72
2023-02-18T08:42:59.265Z,66.07
2023-02-18T08:45:31.693Z,66.17
2023-02-18T08:48:17.728Z,66.29
2023-02-18T08:50:51.313Z,66.04
2023-02-18T08:53:24.343Z,65.70
2023-02-18T08:55:56.829Z,65.60
2023-02-18T08:58:28.928Z,65.43
2023-02-18T09:01:05.235Z,65.74
2023-02-18T09:03:38.793Z,65.57
2023-02-18T09:06:12.168Z,65.42
2023-02-18T09:08:45.285Z,65.63
2023-02-18T09:11:17.744Z,65.63
2023-02-18T09:13:50.086Z,65.64
2023-02-18T09:16:22.407Z,65.39
2023-02-18T09:18:55.290Z,65.47
2023-02-18T09:21:28.139Z,65.75
2023-02-18T09:24:01.117Z,64.71
2023-02-18T09:26:33.217Z,64.18
2023-02-18T09:29:05.570Z,64.02
2023-02-18T09:31:38.570Z,63.46
2023-02-18T09:34:10.916Z,63.73
2023-02-18T09:36:43.085Z,63.87
2023-02-18T09:39:15.893Z,63.86
2023-02-18T09:41:51.047Z,64.11
2023-02-18T09:44:27.367Z,62.33
2023-02-18T09:47:03.787Z,62.31
2023-02-18T09:49:41.535Z,62.31
2023-02-18T09:52:25.500Z,62.83
2023-02-18T09:54:58.110Z,62.35
2023-02-18T09:57:40.666Z,61.21
2023-02-18T10:00:20.311Z,61.33
2023-02-18T10:02:58.245Z,60.92
2023-02-18T10:05:32.858Z,61.27
2023-02-18T10:08:08.096Z,61.69
2023-02-18T10:10:43.645Z,62.38
2023-02-18T10:13:18.718Z,62.90
2023-02-18T10:15:52.890Z,63.31
2023-02-18T10:21:11.108Z,64.13
2023-02-18T10:23:48.426Z,64.57
2023-02-18T10:26:21.972Z,64.82
2023-02-18T10:28:54.225Z,65.62
2023-02-18T10:31:35.362Z,65.52
2023-02-18T10:34:19.317Z,66.24
2023-02-18T10:36:56.766Z,67.07
2023-02-18T10:39:46.458Z,67.51
2023-02-18T10:42:31.272Z,68.90
2023-02-18T10:45:18.277Z,69.10
2023-02-18T10:48:05.514Z,69.46
2023-02-18T10:50:41.640Z,69.69
2023-02-18T10:53:19.478Z,69.27
2023-02-18T10:55:54.744Z,69.06
2023-02-18T10:58:33.810Z,69.44
2023-02-18T11:01:14.861Z,69.60
2023-02-18T11:03:49.497Z,69.16
2023-02-18T11:06:28.850Z,69.19
2023-02-18T11:09:02.149Z,69.39
2023-02-18T11:11:40.182Z,69.34
2023-02-18T11:14:19.174Z,69.65
2023-02-18T11:16:53.758Z,70.08
2023-02-18T11:19:36.558Z,69.92
2023-02-18T11:22:20.101Z,69.89
2023-02-18T11:24:57.913Z,69.73
2023-02-18T11:27:37.334Z,69.92
2023-02-18T11:30:17.340Z,70.25
2023-02-18T11:32:54.603Z,70.53
2023-02-18T11:35:30.156Z,70.02
2023-02-18T11:38:04.891Z,69.68
2023-02-18T11:40:38.449Z,69.62
2023-02-18T11:43:16.637Z,69.77
2023-02-18T11:45:49.891Z,69.91
2023-02-18T11:48:31.759Z,70.13
2023-02-18T11:51:07.360Z,70.59
2023-02-18T11:53:40.667Z,70.27
2023-02-18T11:56:21.436Z,70.05
2023-02-18T11:58:55.332Z,70.49
2023-02-18T12:01:37.895Z,70.16
2023-02-18T12:04:17.144Z,70.53
2023-02-18T12:06:56.733Z,70.26
2023-02-18T12:09:33.081Z,70.18
2023-02-18T12:12:12.984Z,70.23
2023-02-18T12:14:45.625Z,70.23
2023-02-18T12:17:44.220Z,70.61
2023-02-18T12:20:54.586Z,70.88
2023-02-18T12:23:34.887Z,71.12
2023-02-18T12:26:19.711Z,71.74
2023-02-18T12:29:10.461Z,71.13
2023-02-18T12:32:12.350Z,71.92
2023-02-18T12:35:04.358Z,71.44
2023-02-18T12:38:04.244Z,71.44
2023-02-18T12:40:50.116Z,71.06
2023-02-18T12:43:32.548Z,71.49
2023-02-18T12:46:22.920Z,72.11
2023-02-18T12:49:21.655Z,71.59
2023-02-18T12:52:09.432Z,72.18
2023-02-18T12:54:59.694Z,72.40
2023-02-18T12:57:41.128Z,72.15
2023-02-18T13:00:32.018Z,73.13
2023-02-18T13:04:00.707Z,72.99
2023-02-18T13:07:06.830Z,73.04
2023-02-18T13:09:55.211Z,73.02
2023-02-18T13:12:32.988Z,73.53
2023-02-18T13:15:12.947Z,73.70
2023-02-18T13:17:46.975Z,73.80
2023-02-18T13:20:24.274Z,74.65
2023-02-18T13:22:57.871Z,74.04
2023-02-18T13:25:30.617Z,73.30
2023-02-18T13:28:16.907Z,73.06
2023-02-18T13:30:56.250Z,74.48
2023-02-18T13:33:37.951Z,74.16
2023-02-18T13:36:19.351Z,74.67
2023-02-18T13:39:04.128Z,74.48
2023-02-18T13:41:41.949Z,74.85
2023-02-18T13:45:03.180Z,74.55
2023-02-18T13:47:43.987Z,74.36
2023-02-18T13:50:34.696Z,74.64
2023-02-18T13:53:31.203Z,75.53
2023-02-18T13:56:09.303Z,76.48
2023-02-18T13:58:47.074Z,76.63
2023-02-18T14:01:34.991Z,76.32
2023-02-18T14:04:44.831Z,76.60
2023-02-18T14:07:51.721Z,77.02
2023-02-18T14:10:29.979Z,76.00
2023-02-18T14:13:24.260Z,76.65
2023-02-18T14:16:02.298Z,75.91
2023-02-18T14:19:03.841Z,77.29
2023-02-18T14:21:43.944Z,77.90
2023-02-18T14:24:36.489Z,78.00
2023-02-18T14:27:18.702Z,78.70
2023-02-18T14:29:52.697Z,79.34
2023-02-18T14:32:26.416Z,79.25
2023-02-18T14:35:22.528Z,78.51
2023-02-18T14:38:31.046Z,77.90
2023-02-18T14:41:16.424Z,77.85
2023-02-18T14:44:09.077Z,78.06
2023-02-18T14:46:55.690Z,77.88
2023-02-18T14:49:40.035Z,78.12
2023-02-18T14:52:21.169Z,78.65
2023-02-18T14:54:54.414Z,78.97
2023-02-18T14:57:34.984Z,79.10
2023-02-18T15:00:16.052Z,79.11
2023-02-18T15:02:54.576Z,79.26
2023-02-18T15:05:30.370Z,79.18
2023-02-18T15:08:06.111Z,80.35
2023-02-18T15:10:45.535Z,78.69
2023-02-18T15:13:23.356Z,78.82
2023-02-18T15:15:59.019Z,78.41
2023-02-18T15:18:36.812Z,79.07
2023-02-18T15:21:11.629Z,78.48
2023-02-18T15:23:44.492Z,78.50
2023-02-18T15:26:18.494Z,78.60
2023-02-18T15:29:01.176Z,78.32
2023-02-18T15:31:38.990Z,78.45
2023-02-18T15:34:39.644Z,78.52
2023-02-18T15:37:14.972Z,78.86
2023-02-18T15:39:48.994Z,79.37
2023-02-18T15:42:31.260Z,79.69
2023-02-18T15:45:04.929Z,80.42
2023-02-18T15:47:44.039Z,80.61
2023-02-18T15:50:21.556Z,80.53
2023-02-18T15:52:56.064Z,80.21
2023-02-18T15:55:34.698Z,80.24
2023-02-18T15:58:12.321Z,80.98
2023-02-18T16:00:51.188Z,81.00
2023-02-18T16:03:26.458Z,81.06
2023-02-18T16:06:14.389Z,81.11
2023-02-18T16:08:56.489Z,81.11
2023-02-18T16:11:34.014Z,80.81
2023-02-18T16:14:07.267Z,80.81
2023-02-18T16:16:41.109Z,80.90
2023-02-18T16:19:26.580Z,81.10
2023-02-18T16:21:59.176Z,80.83
2023-02-18T16:24:41.707Z,80.80
2023-02-18T16:27:19.258Z,80.27
2023-02-18T16:29:54.081Z,79.28
2023-02-18T16:32:27.298Z,78.70
2023-02-18T16:35:03.788Z,78.31
2023-02-18T16:37:42.117Z,76.92
2023-02-18T16:40:32.364Z,76.15
2023-02-18T16:43:11.193Z,75.90
2023-02-18T16:45:46.516Z,75.29
2023-02-18T16:48:22.319Z,75.11
2023-02-18T16:50:55.324Z,74.32
2023-02-18T16:53:28.343Z,74.16
2023-02-18T16:56:03.090Z,73.93
2023-02-18T16:58:35.633Z,73.66
2023-02-18T17:01:08.475Z,73.44
2023-02-18T17:03:40.919Z,73.45
2023-02-18T17:06:14.570Z,73.41
2023-02-18T17:08:47.644Z,73.54
2023-02-18T17:11:23.871Z,72.94
2023-02-18T17:13:58.542Z,73.09
2023-02-18T17:16:31.535Z,72.80
2023-02-18T17:19:04.101Z,72.90
2023-02-18T17:21:36.484Z,72.85
2023-02-18T17:24:12.698Z,72.76
2023-02-18T17:26:45.670Z,72.55
2023-02-18T17:29:17.919Z,72.60
2023-02-18T17:31:56.971Z,72.22
2023-02-18T17:34:31.220Z,72.32
2023-02-18T17:37:03.581Z,71.62
2023-02-18T17:39:36.467Z,71.48
2023-02-18T17:42:11.567Z,71.18
2023-02-18T17:44:43.887Z,70.97
2023-02-18T17:47:16.249Z,70.90
2023-02-18T17:49:48.688Z,70.90
2023-02-18T17:52:32.224Z,70.26
2023-02-18T17:55:12.412Z,69.72
2023-02-18T17:57:46.324Z,69.83
2023-02-18T18:00:21.943Z,69.75
2023-02-18T18:02:55.163Z,69.77
2023-02-18T18:05:29.808Z,69.65
2023-02-18T18:08:03.005Z,69.60
2023-02-18T18:10:37.377Z,69.46
2023-02-18T18:13:15.101Z,69.55
2023-02-18T18:15:47.650Z,69.50
2023-02-18T18:18:20.745Z,69.68
2023-02-18T18:20:55.092Z,69.69
2023-02-18T18:23:28.885Z,69.76
2023-02-18T18:26:01.691Z,69.56
2023-02-18T18:28:36.088Z,69.52
2023-02-18T18:31:13.899Z,69.11
2023-02-18T18:33:49.004Z,68.76
2023-02-18T18:36:24.511Z,68.81
2023-02-18T18:38:56.856Z,69.28
2023-02-18T18:41:29.412Z,69.35
2023-02-18T18:44:02.349Z,68.88
2023-02-18T18:46:34.681Z,68.81
2023-02-18T18:49:07.888Z,69.23
2023-02-18T18:51:41.046Z,69.37
2023-02-18T18:54:14.681Z,69.50
2023-02-18T18:56:48.187Z,69.45
2023-02-18T18:59:21.436Z,69.27
2023-02-18T19:01:55.860Z,69.02
2023-02-18T19:04:28.231Z,69.40
2023-02-18T19:07:00.403Z,69.41
2023-02-18T19:09:32.615Z,69.78
2023-02-18T19:12:06.093Z,70.00
2023-02-18T19:14:38.278Z,69.65
2023-02-18T19:17:10.554Z,69.84
2023-02-18T19:19:42.786Z,69.89
2023-02-18T19:22:14.930Z,70.11
2023-02-18T19:24:48.040Z,69.95
2023-02-18T19:27:20.919Z,69.75
2023-02-18T19:29:54.489Z,69.86
2023-02-18T19:32:27.072Z,69.76
2023-02-18T19:34:59.414Z,69.61
2023-02-18T19:37:35.138Z,69.68
2023-02-18T19:40:09.638Z,69.43
2023-02-18T19:42:42.020Z,69.21
2023-02-18T19:45:14.751Z,69.39
2023-02-18T19:47:47.250Z,69.41
2023-02-18T19:50:20.055Z,69.66
2023-02-18T19:52:54.166Z,69.57
2023-02-18T19:55:27.270Z,69.55
2023-02-18T19:57:59.974Z,69.19
2023-02-18T20:00:32.478Z,69.47
2023-02-18T20:03:05.031Z,69.43
2023-02-18T20:05:40.875Z,69.54
2023-02-18T20:08:13.322Z,69.41
2023-02-18T20:10:45.677Z,69.30
2023-02-18T20:13:17.937Z,69.14
2023-02-18T20:15:51.064Z,69.24
2023-02-18T20:18:23.714Z,69.50
2023-02-18T20:20:56.429Z,69.50
2023-02-18T20:23:29.102Z,69.69
2023-02-18T20:26:04.257Z,69.76
2023-02-18T20:28:36.924Z,69.76
2023-02-18T20:31:12.553Z,70.01
2023-02-18T20:33:45.517Z,70.07
2023-02-18T20:36:17.994Z,70.09
2023-02-18T20:38:52.646Z,70.30
2023-02-18T20:41:25.503Z,70.55
2023-02-18T20:44:02.276Z,70.64
2023-02-18T20:46:35.462Z,70.69
2023-02-18T20:49:09.171Z,70.78
2023-02-18T20:51:46.311Z,70.58
2023-02-18T20:54:20.715Z,70.50
2023-02-18T20:56:53.926Z,70.60
2023-02-18T20:59:26.321Z,70.59
2023-02-18T21:01:58.782Z,70.68
2023-02-18T21:04:31.934Z,71.21
2023-02-18T21:07:04.346Z,71.28
2023-02-18T21:09:39.830Z,71.75
2023-02-18T21:12:12.263Z,71.70
2023-02-18T21:14:44.688Z,71.75
2023-02-18T21:17:17.281Z,71.76
2023-02-18T21:19:49.943Z,71.85
2023-02-18T21:22:22.876Z,71.95
2023-02-18T21:24:54.995Z,72.22
2023-02-18T21:27:27.203Z,72.84
2023-02-18T21:30:01.217Z,73.14
2023-02-18T21:32:33.460Z,73.25
2023-02-18T21:35:06.960Z,73.86
2023-02-18T21:37:39.422Z,73.95
2023-02-18T21:40:13.170Z,73.91
2023-02-18T21:42:45.188Z,73.80
2023-02-18T21:45:17.472Z,73.82
2023-02-18T21:47:50.081Z,74.04
2023-02-18T21:50:22.725Z,73.56
2023-02-18T21:52:54.888Z,73.94
2023-02-18T21:55:27.127Z,74.44
2023-02-18T21:57:59.993Z,74.87
2023-02-18T22:00:32.335Z,75.14
2023-02-18T22:03:04.993Z,75.14
2023-02-18T22:05:40.242Z,74.95
2023-02-18T22:08:12.719Z,75.44
2023-02-18T22:10:45.276Z,75.50
2023-02-18T22:13:17.468Z,75.67
2023-02-18T22:15:57.800Z,76.23
2023-02-18T22:18:33.938Z,76.19
2023-02-18T22:21:07.640Z,76.50
2023-02-18T22:23:40.408Z,76.62
2023-02-18T22:26:13.577Z,76.58
2023-02-18T22:28:47.903Z,76.78
2023-02-18T22:31:20.460Z,77.06
2023-02-18T22:33:53.709Z,77.82
2023-02-18T22:36:29.006Z,78.30
2023-02-18T22:39:02.806Z,77.91
2023-02-18T22:41:36.019Z,77.90
2023-02-18T22:44:10.215Z,77.94
2023-02-18T22:46:42.430Z,77.88
2023-02-18T22:49:15.626Z,77.78
2023-02-18T22:51:51.752Z,77.96
2023-02-18T22:54:24.430Z,77.80
2023-02-18T22:56:56.687Z,78.09
2023-02-18T22:59:29.073Z,78.29
2023-02-18T23:02:01.231Z,78.75
2023-02-18T23:04:33.287Z,78.21
2023-02-18T23:07:05.545Z,78.48
2023-02-18T23:09:38.144Z,78.00
2023-02-18T23:12:10.866Z,78.43
2023-02-18T23:14:43.120Z,78.15
2023-02-18T23:17:17.862Z,78.31
2023-02-18T23:19:52.506Z,78.30
2023-02-18T23:22:30.572Z,78.62
2023-02-18T23:25:03.508Z,78.64
2023-02-18T23:27:35.640Z,78.84
2023-02-18T23:30:09.603Z,78.61
2023-02-18T23:32:41.812Z,78.19
2023-02-18T23:35:14.281Z,78.06
2023-02-18T23:38:04.900Z,78.04
2023-02-18T23:40:37.672Z,78.23
2023-02-18T23:43:09.969Z,78.19
2023-02-18T23:45:42.615Z,78.42
2023-02-18T23:48:14.796Z,78.67
2023-02-18T23:50:47.073Z,78.93
2023-02-18T23:53:19.224Z,79.22
2023-02-18T23:56:00.853Z,79.33
2023-02-18T23:58:33.184Z,79.09
